createdAt,value
2022-09-04T00:01:15.719Z,14.10
2022-09-04T00:03:58.672Z,14.10
2022-09-04T00:06:33.695Z,14.20
2022-09-04T00:09:19.146Z,14.00
2022-09-04T00:12:08.971Z,14.00
2022-09-04T00:15:08.593Z,13.90
2022-09-04T00:17:58.892Z,13.90
2022-09-04T00:20:36.474Z,13.90
2022-09-04T00:23:35.916Z,13.90
2022-09-04T00:26:21.188Z,13.90
2022-09-04T00:28:54.039Z,13.90
2022-09-04T00:31:38.904Z,13.80
2022-09-04T00:35:06.442Z,13.80
2022-09-04T00:37:39.630Z,13.70
2022-09-04T00:40:22.244Z,13.70
2022-09-04T00:43:07.154Z,13.70
2022-09-04T00:46:20.567Z,13.70
2022-09-04T00:49:11.632Z,13.70
2022-09-04T00:51:59.742Z,13.70
2022-09-04T00:54:57.512Z,13.70
2022-09-04T00:58:04.962Z,13.70
2022-09-04T01:00:33.734Z,13.80
2022-09-04T01:03:14.996Z,13.70
2022-09-04T01:06:07.971Z,13.70
2022-09-04T01:09:14.803Z,13.60
2022-09-04T01:12:36.539Z,13.60
2022-09-04T01:15:28.531Z,13.40
2022-09-04T01:18:48.119Z,13.40
2022-09-04T01:21:56.245Z,13.40
2022-09-04T01:24:59.628Z,13.40
2022-09-04T01:27:51.714Z,13.40
2022-09-04T01:30:21.675Z,13.40
2022-09-04T01:33:08.642Z,13.40
2022-09-04T01:36:06.418Z,13.40
2022-09-04T01:38:51.180Z,13.30
2022-09-04T01:41:54.184Z,13.30
2022-09-04T01:44:21.321Z,13.30
2022-09-04T01:47:08.330Z,13.30
2022-09-04T01:49:39.368Z,13.20
2022-09-04T01:52:11.676Z,13.20
2022-09-04T01:54:53.859Z,13.10
2022-09-04T01:58:19.135Z,13.10
2022-09-04T02:01:08.541Z,13.10
2022-09-04T02:04:24.203Z,13.10
2022-09-04T02:07:03.950Z,13.10
2022-09-04T02:10:04.655Z,13.10
2022-09-04T02:12:47.947Z,13.10
2022-09-04T02:15:31.689Z,13.00
2022-09-04T02:18:36.226Z,13.00
2022-09-04T02:21:31.994Z,13.00
2022-09-04T02:24:23.419Z,13.00
2022-09-04T02:27:15.743Z,12.90
2022-09-04T02:30:13.734Z,12.90
2022-09-04T02:33:22.928Z,12.90
2022-09-04T02:36:07.765Z,12.90
2022-09-04T02:38:51.254Z,12.90
2022-09-04T02:42:04.139Z,12.80
2022-09-04T02:44:49.187Z,12.70
2022-09-04T02:47:59.387Z,12.80
2022-09-04T02:50:56.387Z,12.80
2022-09-04T02:53:39.087Z,12.80
2022-09-04T02:56:25.699Z,12.80
2022-09-04T02:59:28.998Z,12.80
2022-09-04T03:02:03.342Z,12.80
2022-09-04T03:05:11.661Z,12.80
2022-09-04T03:07:48.909Z,12.80
2022-09-04T03:10:19.847Z,12.70
2022-09-04T03:13:09.933Z,12.70
2022-09-04T03:16:13.029Z,12.70
2022-09-04T03:19:08.592Z,12.70
2022-09-04T03:21:53.198Z,12.70
2022-09-04T03:24:42.411Z,12.60
2022-09-04T03:27:14.335Z,12.60
2022-09-04T03:29:47.125Z,12.50
2022-09-04T03:32:52.106Z,12.50
2022-09-04T03:35:58.481Z,12.40
2022-09-04T03:38:43.745Z,12.40
2022-09-04T03:41:30.353Z,12.40
2022-09-04T03:44:27.823Z,12.40
2022-09-04T03:47:29.772Z,12.50
2022-09-04T03:50:30.925Z,12.50
2022-09-04T03:53:20.014Z,12.60
2022-09-04T03:56:06.999Z,12.60
2022-09-04T03:59:00.514Z,12.70
2022-09-04T04:01:45.642Z,12.80
2022-09-04T04:04:52.625Z,12.80
2022-09-04T04:07:37.773Z,12.90
2022-09-04T04:10:31.230Z,13.00
2022-09-04T04:13:50.927Z,13.10
2022-09-04T04:16:40.710Z,13.20
2022-09-04T04:19:49.559Z,13.30
2022-09-04T04:22:33.514Z,13.30
2022-09-04T04:25:36.742Z,13.30
2022-09-04T04:28:37.792Z,13.30
2022-09-04T04:31:37.637Z,13.30
2022-09-04T04:34:28.531Z,13.30
2022-09-04T04:37:13.617Z,13.20
2022-09-04T04:39:55.885Z,13.10
2022-09-04T04:42:40.023Z,13.10
2022-09-04T04:45:52.773Z,13.10
2022-09-04T04:49:04.479Z,13.00
2022-09-04T04:52:04.499Z,12.90
2022-09-04T04:54:53.153Z,12.90
2022-09-04T04:57:35.515Z,12.80
2022-09-04T05:00:43.081Z,12.80
2022-09-04T05:03:48.371Z,12.70
2022-09-04T05:06:29.180Z,12.60
2022-09-04T05:09:23.103Z,12.60
2022-09-04T05:12:18.272Z,12.60
2022-09-04T05:15:20.138Z,12.60
2022-09-04T05:18:12.192Z,12.70
2022-09-04T05:21:06.893Z,12.80
2022-09-04T05:23:49.079Z,12.80
2022-09-04T05:26:49.476Z,12.80
2022-09-04T05:29:44.611Z,12.90
2022-09-04T05:32:28.767Z,12.90
2022-09-04T05:36:01.274Z,12.90
2022-09-04T05:38:57.519Z,12.90
2022-09-04T05:41:50.158Z,13.00
2022-09-04T05:44:54.620Z,13.10
2022-09-04T05:47:30.439Z,13.10
2022-09-04T05:50:16.863Z,13.10
2022-09-04T05:52:53.177Z,13.10
2022-09-04T05:56:01.995Z,13.20
2022-09-04T05:59:06.940Z,13.30
2022-09-04T06:02:31.064Z,13.30
2022-09-04T06:05:52.490Z,13.40
2022-09-04T06:08:43.815Z,13.50
2022-09-04T06:11:32.500Z,13.60
2022-09-04T06:14:58.824Z,13.70
2022-09-04T06:17:44.062Z,13.80
2022-09-04T06:20:55.664Z,13.90
2022-09-04T06:23:49.918Z,14.00
2022-09-04T06:26:52.751Z,14.10
2022-09-04T06:29:47.526Z,14.30
2022-09-04T06:32:49.102Z,14.40
2022-09-04T06:36:01.048Z,14.50
2022-09-04T06:38:41.251Z,14.60
2022-09-04T06:41:54.994Z,14.60
2022-09-04T06:45:23.805Z,14.70
2022-09-04T06:48:34.329Z,14.80
2022-09-04T06:51:19.750Z,14.90
2022-09-04T06:54:10.516Z,15.00
2022-09-04T06:57:22.663Z,15.20
2022-09-04T07:00:02.392Z,15.20
2022-09-04T07:02:38.592Z,15.40
2022-09-04T07:05:22.666Z,15.50
2022-09-04T07:08:26.381Z,15.60
2022-09-04T07:11:18.162Z,15.70
2022-09-04T07:14:17.126Z,15.80
2022-09-04T07:17:05.205Z,15.90
2022-09-04T07:20:07.433Z,16.00
2022-09-04T07:23:00.717Z,16.20
2022-09-04T07:25:39.717Z,16.30
2022-09-04T07:28:36.975Z,16.40
2022-09-04T07:32:06.125Z,16.60
2022-09-04T07:34:41.291Z,16.70
2022-09-04T07:37:25.132Z,17.00
2022-09-04T07:40:22.037Z,17.10
2022-09-04T07:42:52.413Z,17.20
2022-09-04T07:45:40.108Z,17.40
2022-09-04T07:48:34.950Z,17.60
2022-09-04T07:51:13.414Z,17.70
2022-09-04T07:54:01.849Z,17.90
2022-09-04T07:56:56.967Z,18.10
2022-09-04T07:59:39.567Z,18.30
2022-09-04T08:02:21.563Z,18.40
2022-09-04T08:05:41.183Z,18.60
2022-09-04T08:08:46.518Z,18.70
2022-09-04T08:12:01.459Z,18.90
2022-09-04T08:14:53.514Z,19.10
2022-09-04T08:18:05.742Z,19.20
2022-09-04T08:21:23.687Z,19.30
2022-09-04T08:24:14.883Z,19.50
2022-09-04T08:27:06.791Z,19.60
2022-09-04T08:30:04.631Z,19.70
2022-09-04T08:33:24.032Z,19.80
2022-09-04T08:36:43.975Z,19.80
2022-09-04T08:39:38.831Z,19.80
2022-09-04T08:43:07.196Z,19.90
2022-09-04T08:45:42.431Z,20.00
2022-09-04T08:49:09.494Z,20.00
2022-09-04T08:52:19.587Z,20.10
2022-09-04T08:55:05.846Z,20.20
2022-09-04T08:58:28.583Z,20.40
2022-09-04T09:01:45.408Z,20.30
2022-09-04T09:05:05.583Z,20.40
2022-09-04T09:07:58.551Z,20.50
2022-09-04T09:10:38.337Z,20.70
2022-09-04T09:13:26.393Z,20.80
2022-09-04T09:16:25.301Z,21.00
2022-09-04T09:19:33.915Z,21.10
2022-09-04T09:22:38.748Z,21.40
2022-09-04T09:25:55.830Z,21.50
2022-09-04T09:28:47.608Z,21.50
2022-09-04T09:31:38.387Z,21.60
2022-09-04T09:34:24.040Z,21.70
2022-09-04T09:37:32.983Z,21.90
2022-09-04T09:40:37.399Z,21.90
2022-09-04T09:43:50.190Z,21.80
2022-09-04T09:47:07.327Z,21.80
2022-09-04T09:49:52.315Z,22.10
2022-09-04T09:52:55.938Z,22.20
2022-09-04T09:55:53.021Z,21.90
2022-09-04T09:59:15.956Z,21.80
2022-09-04T10:01:48.753Z,21.80
2022-09-04T10:04:51.541Z,22.10
2022-09-04T10:07:37.455Z,22.20
2022-09-04T10:10:48.263Z,22.20
2022-09-04T10:13:37.163Z,22.20
2022-09-04T10:16:36.098Z,22.00
2022-09-04T10:19:51.623Z,22.20
2022-09-04T10:23:06.531Z,22.50
2022-09-04T10:25:55.100Z,22.50
2022-09-04T10:28:49.748Z,22.80
2022-09-04T10:31:57.527Z,23.00
2022-09-04T10:35:00.833Z,23.40
2022-09-04T10:38:08.004Z,23.40
2022-09-04T10:41:29.329Z,23.40
2022-09-04T10:44:26.799Z,23.70
2022-09-04T10:47:25.211Z,23.90
2022-09-04T10:50:04.456Z,24.00
2022-09-04T10:52:43.272Z,24.10
2022-09-04T10:55:19.135Z,23.80
2022-09-04T10:58:24.755Z,23.80
2022-09-04T11:01:36.789Z,23.90
2022-09-04T11:05:07.163Z,24.00
2022-09-04T11:08:36.995Z,23.90
2022-09-04T11:11:11.684Z,24.20
2022-09-04T11:14:06.731Z,24.40
2022-09-04T11:17:28.616Z,24.80
2022-09-04T11:20:25.891Z,25.00
2022-09-04T11:23:23.486Z,24.90
2022-09-04T11:26:12.303Z,24.50
2022-09-04T11:28:51.375Z,24.30
2022-09-04T11:31:48.507Z,24.50
2022-09-04T11:34:40.747Z,24.60
2022-09-04T11:37:57.705Z,24.40
2022-09-04T11:41:04.881Z,24.20
2022-09-04T11:44:06.016Z,23.60
2022-09-04T11:47:04.230Z,23.20
2022-09-04T11:50:17.393Z,22.90
2022-09-04T11:52:56.793Z,23.10
2022-09-04T11:56:09.845Z,23.60
2022-09-04T11:59:10.559Z,24.10
2022-09-04T12:02:23.222Z,25.00
2022-09-04T12:05:14.748Z,25.40
2022-09-04T12:08:08.948Z,25.40
2022-09-04T12:10:52.611Z,25.40
2022-09-04T12:13:28.664Z,24.60
2022-09-04T12:16:49.822Z,25.10
2022-09-04T12:19:51.213Z,25.20
2022-09-04T12:22:45.901Z,25.90
2022-09-04T12:25:18.896Z,26.10
2022-09-04T12:28:18.507Z,26.50
2022-09-04T12:31:13.133Z,27.40
2022-09-04T12:34:11.649Z,28.30
2022-09-04T12:37:21.393Z,28.90
2022-09-04T12:40:29.640Z,28.90
2022-09-04T12:43:16.564Z,28.80
2022-09-04T12:46:06.968Z,27.70
2022-09-04T12:48:37.049Z,27.30
2022-09-04T12:51:21.413Z,27.10
2022-09-04T12:54:05.267Z,26.60
2022-09-04T12:56:49.182Z,27.40
2022-09-04T12:59:26.795Z,27.50
2022-09-04T13:02:30.280Z,28.50
2022-09-04T13:05:54.791Z,28.60
2022-09-04T13:08:58.120Z,27.90
2022-09-04T13:12:20.515Z,27.80
2022-09-04T13:15:14.387Z,27.60
2022-09-04T13:18:18.712Z,28.30
2022-09-04T13:20:58.274Z,28.10
2022-09-04T13:23:35.697Z,28.00
2022-09-04T13:27:04.899Z,27.60
2022-09-04T13:30:03.600Z,27.30
2022-09-04T13:33:04.695Z,27.20
2022-09-04T13:35:55.375Z,28.10
2022-09-04T13:39:10.808Z,28.30
2022-09-04T13:42:20.203Z,28.40
2022-09-04T13:45:11.790Z,28.50
2022-09-04T13:47:52.383Z,28.20
2022-09-04T13:50:43.296Z,27.20
2022-09-04T13:53:16.676Z,27.30
2022-09-04T13:55:54.763Z,27.70
2022-09-04T13:58:32.191Z,27.90
2022-09-04T14:01:07.459Z,28.20
2022-09-04T14:03:57.469Z,27.70
2022-09-04T14:06:27.383Z,27.30
2022-09-04T14:09:04.758Z,26.90
2022-09-04T14:12:05.451Z,26.90
2022-09-04T14:14:44.442Z,27.20
2022-09-04T14:17:12.691Z,27.60
2022-09-04T14:19:55.447Z,27.90
2022-09-04T14:22:48.695Z,27.60
2022-09-04T14:25:30.951Z,27.30
2022-09-04T14:28:32.060Z,26.90
2022-09-04T14:31:17.902Z,27.00
2022-09-04T14:34:38.932Z,26.80
2022-09-04T14:37:23.391Z,26.40
2022-09-04T14:40:03.830Z,27.20
2022-09-04T14:43:12.495Z,27.40
2022-09-04T14:46:07.400Z,27.70
2022-09-04T14:48:44.630Z,27.90
2022-09-04T14:51:35.174Z,27.90
2022-09-04T14:54:03.512Z,27.20
2022-09-04T14:56:51.308Z,27.00
2022-09-04T14:59:41.372Z,26.90
2022-09-04T15:02:11.539Z,26.90
2022-09-04T15:04:54.205Z,26.50
2022-09-04T15:07:44.635Z,26.50
2022-09-04T15:10:35.332Z,26.50
2022-09-04T15:13:21.282Z,26.90
2022-09-04T15:16:12.720Z,27.00
2022-09-04T15:18:40.811Z,27.10
2022-09-04T15:21:33.370Z,26.60
2022-09-04T15:24:26.474Z,26.80
2022-09-04T15:27:37.552Z,26.90
2022-09-04T15:30:07.090Z,26.60
2022-09-04T15:32:42.659Z,26.60
2022-09-04T15:35:34.037Z,26.60
2022-09-04T15:38:22.100Z,26.80
2022-09-04T15:41:15.620Z,26.60
2022-09-04T15:43:55.886Z,26.50
2022-09-04T15:46:35.620Z,26.70
2022-09-04T15:49:38.294Z,26.90
2022-09-04T15:52:26.562Z,27.00
2022-09-04T15:55:30.153Z,27.10
2022-09-04T15:58:30.271Z,27.20
2022-09-04T16:01:06.458Z,27.30
2022-09-04T16:03:53.175Z,27.30
2022-09-04T16:06:42.566Z,27.20
2022-09-04T16:09:33.818Z,27.10
2022-09-04T16:12:21.747Z,27.10
2022-09-04T16:14:57.743Z,27.10
2022-09-04T16:17:44.507Z,26.90
2022-09-04T16:20:34.368Z,26.80
2022-09-04T16:23:09.116Z,26.70
2022-09-04T16:25:50.931Z,26.50
2022-09-04T16:28:40.976Z,26.40
2022-09-04T16:31:14.875Z,26.20
2022-09-04T16:33:45.844Z,26.10
2022-09-04T16:36:40.324Z,26.00
2022-09-04T16:39:58.436Z,25.80
2022-09-04T16:42:47.983Z,25.70
2022-09-04T16:45:27.136Z,25.40
2022-09-04T16:48:33.896Z,25.20
2022-09-04T16:51:50.572Z,25.10
2022-09-04T16:54:32.713Z,24.70
2022-09-04T16:57:15.539Z,24.60
2022-09-04T16:59:55.843Z,24.40
2022-09-04T17:02:52.818Z,24.10
2022-09-04T17:05:53.736Z,23.70
2022-09-04T17:08:31.869Z,23.40
2022-09-04T17:11:55.578Z,23.10
2022-09-04T17:14:35.942Z,22.90
2022-09-04T17:17:30.524Z,22.70
2022-09-04T17:20:21.022Z,22.50
2022-09-04T17:28:59.981Z,22.40
2022-09-04T17:29:07.711Z,22.30
2022-09-04T17:29:38.208Z,22.00
2022-09-04T17:33:46.116Z,21.80
2022-09-04T17:40:38.801Z,21.50
2022-09-04T17:40:46.601Z,21.40
2022-09-04T17:42:27.341Z,21.20
2022-09-04T17:45:20.083Z,21.00
2022-09-04T17:47:47.252Z,20.80
2022-09-04T17:50:20.271Z,20.70
2022-09-04T17:53:10.400Z,20.60
2022-09-04T17:55:57.565Z,20.40
2022-09-04T17:58:54.718Z,20.30
2022-09-04T18:01:43.982Z,20.20
2022-09-04T18:04:27.047Z,20.00
2022-09-04T18:08:09.127Z,19.90
2022-09-04T18:10:28.467Z,19.70
2022-09-04T18:13:36.975Z,19.60
2022-09-04T18:16:23.485Z,19.50
2022-09-04T18:18:59.099Z,19.40
2022-09-04T18:21:36.205Z,19.30
2022-09-04T18:24:16.351Z,19.20
2022-09-04T18:26:55.271Z,19.20
2022-09-04T18:30:13.869Z,19.20
2022-09-04T18:37:23.609Z,19.10
2022-09-04T18:37:24.433Z,19.00
2022-09-04T18:38:44.222Z,18.80
2022-09-04T18:46:35.358Z,18.70
2022-09-04T18:50:35.289Z,18.50
2022-09-04T18:50:53.387Z,18.60
2022-09-04T18:51:14.628Z,18.40
2022-09-04T18:54:12.397Z,18.30
2022-09-04T18:56:47.928Z,18.20
2022-09-04T18:59:19.707Z,18.10
2022-09-04T19:02:26.350Z,18.10
2022-09-04T19:05:08.718Z,18.00
2022-09-04T19:07:53.963Z,17.90
2022-09-04T19:10:37.304Z,17.90
2022-09-04T19:13:36.337Z,17.80
2022-09-04T19:16:20.307Z,17.80
2022-09-04T19:19:04.775Z,17.70
2022-09-04T19:21:57.867Z,17.60
2022-09-04T19:24:57.456Z,17.50
2022-09-04T19:27:47.030Z,17.50
2022-09-04T19:30:26.882Z,17.40
2022-09-04T19:33:13.416Z,17.40
2022-09-04T19:36:17.062Z,17.40
2022-09-04T19:46:01.809Z,17.30
2022-09-04T19:46:06.481Z,17.20
2022-09-04T19:46:16.657Z,17.30
2022-09-04T19:49:11.117Z,17.10
2022-09-04T19:53:34.344Z,17.10
2022-09-04T19:54:57.813Z,17.00
2022-09-04T19:57:45.405Z,17.00
2022-09-04T20:00:42.396Z,16.90
2022-09-04T20:03:30.352Z,16.80
2022-09-04T20:06:35.542Z,16.80
2022-09-04T20:09:40.637Z,16.70
2022-09-04T20:12:20.938Z,16.70
2022-09-04T20:15:12.196Z,16.60
2022-09-04T20:18:14.478Z,16.60
2022-09-04T20:20:58.967Z,16.60
2022-09-04T20:23:36.611Z,16.60
2022-09-04T20:26:18.039Z,16.50
2022-09-04T20:28:59.074Z,16.50
2022-09-04T20:31:45.242Z,16.50
2022-09-04T20:34:26.937Z,16.30
2022-09-04T20:37:23.183Z,16.30
2022-09-04T20:40:15.244Z,16.30
2022-09-04T20:43:12.020Z,16.20
2022-09-04T20:51:49.839Z,16.20
2022-09-04T20:52:52.041Z,16.10
2022-09-04T20:52:53.513Z,16.10
2022-09-04T20:55:55.998Z,16.00
2022-09-04T21:03:08.058Z,15.90
2022-09-04T21:03:23.359Z,15.90
2022-09-04T21:05:37.720Z,15.80
2022-09-04T21:08:19.923Z,15.70
2022-09-04T21:10:49.842Z,15.70
2022-09-04T21:13:46.321Z,15.70
2022-09-04T21:16:41.378Z,15.70
2022-09-04T21:19:29.109Z,15.70
2022-09-04T21:22:32.946Z,15.60
2022-09-04T21:25:27.979Z,15.60
2022-09-04T21:28:48.869Z,15.50
2022-09-04T21:31:43.947Z,15.40
2022-09-04T21:35:05.545Z,15.30
2022-09-04T21:38:30.817Z,15.20
2022-09-04T21:41:28.376Z,15.20
2022-09-04T21:44:10.266Z,15.20
2022-09-04T21:47:20.550Z,15.10
2022-09-04T21:49:56.767Z,15.10
2022-09-04T21:52:50.357Z,15.10
2022-09-04T21:57:41.398Z,15.10
2022-09-04T22:02:35.691Z,15.10
2022-09-04T22:02:35.904Z,15.10
2022-09-04T22:05:31.485Z,15.10
2022-09-04T22:13:26.558Z,15.10
2022-09-04T22:13:38.745Z,15.00
2022-09-04T22:14:25.566Z,14.90
2022-09-04T22:17:16.723Z,14.80
2022-09-04T22:20:16.988Z,14.80
2022-09-04T22:23:04.786Z,14.70
2022-09-04T22:25:50.474Z,14.70
2022-09-04T22:29:44.556Z,14.60
2022-09-04T22:32:20.670Z,14.60
2022-09-04T22:35:15.555Z,14.60
2022-09-04T22:38:04.143Z,14.60
2022-09-04T22:40:57.122Z,14.60
2022-09-04T22:43:26.398Z,14.60
2022-09-04T22:46:30.796Z,14.50
2022-09-04T22:49:31.762Z,14.50
2022-09-04T22:52:37.944Z,14.40
2022-09-04T22:55:39.595Z,14.20
2022-09-04T22:58:42.392Z,14.30
2022-09-04T23:01:36.803Z,14.20
2022-09-04T23:04:41.395Z,14.20
2022-09-04T23:12:36.225Z,14.20
2022-09-04T23:13:58.480Z,14.20
2022-09-04T23:14:52.599Z,14.30
2022-09-04T23:17:32.850Z,14.20
2022-09-04T23:26:12.408Z,14.30
2022-09-04T23:26:42.531Z,14.30
2022-09-04T23:27:00.729Z,14.30
2022-09-04T23:29:53.928Z,14.30
2022-09-04T23:32:46.314Z,14.20
2022-09-04T23:35:26.900Z,14.20
2022-09-04T23:38:24.353Z,14.20
2022-09-04T23:41:18.895Z,14.10
2022-09-04T23:44:32.718Z,14.10
2022-09-04T23:47:47.073Z,14.00
2022-09-04T23:50:13.498Z,14.00
2022-09-04T23:53:07.816Z,14.10
2022-09-04T23:55:56.599Z,14.00
2022-09-04T23:59:09.944Z,14.00
